sensor_id;sensor_type;location;lat;lon;timestamp;temperature;humidity
43561;DHT22;32305;46.410;17.394;2022-07-23T00:00:20;27.00;45.80
43561;DHT22;32305;46.410;17.394;2022-07-23T00:02:48;27.00;45.80
43561;DHT22;32305;46.410;17.394;2022-07-23T00:05:15;27.00;45.90
43561;DHT22;32305;46.410;17.394;2022-07-23T00:07:42;27.00;45.90
43561;DHT22;32305;46.410;17.394;2022-07-23T00:10:09;27.00;45.90
43561;DHT22;32305;46.410;17.394;2022-07-23T00:12:37;27.00;45.90
43561;DHT22;32305;46.410;17.394;2022-07-23T00:15:18;27.00;45.90
43561;DHT22;32305;46.410;17.394;2022-07-23T00:17:45;27.00;45.90
43561;DHT22;32305;46.410;17.394;2022-07-23T00:20:13;27.00;45.90
43561;DHT22;32305;46.410;17.394;2022-07-23T00:22:52;27.00;45.90
43561;DHT22;32305;46.410;17.394;2022-07-23T00:25:21;27.00;45.90
43561;DHT22;32305;46.410;17.394;2022-07-23T00:27:59;27.00;45.90
43561;DHT22;32305;46.410;17.394;2022-07-23T00:30:27;27.00;45.90
43561;DHT22;32305;46.410;17.394;2022-07-23T00:32:59;27.00;46.00
43561;DHT22;32305;46.410;17.394;2022-07-23T00:35:29;27.00;46.00
43561;DHT22;32305;46.410;17.394;2022-07-23T00:37:56;27.00;46.00
43561;DHT22;32305;46.410;17.394;2022-07-23T00:40:24;27.00;46.00
43561;DHT22;32305;46.410;17.394;2022-07-23T00:42:52;27.00;46.00
43561;DHT22;32305;46.410;17.394;2022-07-23T00:45:19;27.00;46.10
43561;DHT22;32305;46.410;17.394;2022-07-23T00:47:46;27.00;46.10
43561;DHT22;32305;46.410;17.394;2022-07-23T00:50:14;27.00;46.10
43561;DHT22;32305;46.410;17.394;2022-07-23T00:52:41;27.00;46.10
43561;DHT22;32305;46.410;17.394;2022-07-23T00:55:10;27.00;46.10
43561;DHT22;32305;46.410;17.394;2022-07-23T00:57:39;26.90;46.10
43561;DHT22;32305;46.410;17.394;2022-07-23T01:00:08;26.90;46.10
43561;DHT22;32305;46.410;17.394;2022-07-23T01:02:36;26.90;46.10
43561;DHT22;32305;46.410;17.394;2022-07-23T01:05:04;26.90;46.10
43561;DHT22;32305;46.410;17.394;2022-07-23T01:07:31;26.90;46.20
43561;DHT22;32305;46.410;17.394;2022-07-23T01:10:00;26.90;46.20
43561;DHT22;32305;46.410;17.394;2022-07-23T01:12:27;26.90;46.20
43561;DHT22;32305;46.410;17.394;2022-07-23T01:14:55;26.90;46.20
43561;DHT22;32305;46.410;17.394;2022-07-23T01:17:23;26.90;46.20
43561;DHT22;32305;46.410;17.394;2022-07-23T01:19:50;26.90;46.20
43561;DHT22;32305;46.410;17.394;2022-07-23T01:22:21;26.90;46.20
43561;DHT22;32305;46.410;17.394;2022-07-23T01:24:48;26.90;46.30
43561;DHT22;32305;46.410;17.394;2022-07-23T01:27:15;26.90;46.30
43561;DHT22;32305;46.410;17.394;2022-07-23T01:29:44;26.90;46.30
43561;DHT22;32305;46.410;17.394;2022-07-23T01:32:12;26.90;46.30
43561;DHT22;32305;46.410;17.394;2022-07-23T01:34:39;26.90;46.30
43561;DHT22;32305;46.410;17.394;2022-07-23T01:37:07;26.90;46.30
43561;DHT22;32305;46.410;17.394;2022-07-23T01:39:34;26.90;46.30
43561;DHT22;32305;46.410;17.394;2022-07-23T01:42:02;26.90;46.30
43561;DHT22;32305;46.410;17.394;2022-07-23T01:44:29;26.90;46.30
43561;DHT22;32305;46.410;17.394;2022-07-23T01:46:56;26.90;46.30
43561;DHT22;32305;46.410;17.394;2022-07-23T01:49:23;26.90;46.30
43561;DHT22;32305;46.410;17.394;2022-07-23T01:51:50;26.90;46.30
43561;DHT22;32305;46.410;17.394;2022-07-23T01:54:28;26.90;46.40
43561;DHT22;32305;46.410;17.394;2022-07-23T01:56:56;26.90;46.40
43561;DHT22;32305;46.410;17.394;2022-07-23T01:59:24;26.90;46.40
43561;DHT22;32305;46.410;17.394;2022-07-23T02:01:52;26.90;46.40
43561;DHT22;32305;46.410;17.394;2022-07-23T02:04:20;26.90;46.40
43561;DHT22;32305;46.410;17.394;2022-07-23T02:06:48;26.90;46.40
43561;DHT22;32305;46.410;17.394;2022-07-23T02:09:16;26.90;46.40
43561;DHT22;32305;46.410;17.394;2022-07-23T02:11:43;26.90;46.40
43561;DHT22;32305;46.410;17.394;2022-07-23T02:14:10;26.80;46.40
43561;DHT22;32305;46.410;17.394;2022-07-23T02:16:38;26.90;46.40
43561;DHT22;32305;46.410;17.394;2022-07-23T02:19:05;26.80;46.40
43561;DHT22;32305;46.410;17.394;2022-07-23T02:21:32;26.80;46.40
43561;DHT22;32305;46.410;17.394;2022-07-23T02:23:59;26.80;46.40
43561;DHT22;32305;46.410;17.394;2022-07-23T02:26:27;26.80;46.50
43561;DHT22;32305;46.410;17.394;2022-07-23T02:28:54;26.80;46.40
43561;DHT22;32305;46.410;17.394;2022-07-23T02:31:21;26.80;46.50
43561;DHT22;32305;46.410;17.394;2022-07-23T02:33:48;26.80;46.50
43561;DHT22;32305;46.410;17.394;2022-07-23T02:36:16;26.80;46.50
43561;DHT22;32305;46.410;17.394;2022-07-23T02:38:43;26.80;46.50
43561;DHT22;32305;46.410;17.394;2022-07-23T02:41:10;26.80;46.50
43561;DHT22;32305;46.410;17.394;2022-07-23T02:43:37;26.80;46.50
43561;DHT22;32305;46.410;17.394;2022-07-23T02:46:04;26.80;46.50
43561;DHT22;32305;46.410;17.394;2022-07-23T02:48:31;26.70;46.50
43561;DHT22;32305;46.410;17.394;2022-07-23T02:51:01;26.80;46.50
43561;DHT22;32305;46.410;17.394;2022-07-23T02:53:28;26.80;46.50
43561;DHT22;32305;46.410;17.394;2022-07-23T02:55:55;26.80;46.60
43561;DHT22;32305;46.410;17.394;2022-07-23T02:58:22;26.80;46.60
43561;DHT22;32305;46.410;17.394;2022-07-23T03:00:49;26.80;46.60
43561;DHT22;32305;46.410;17.394;2022-07-23T03:03:17;26.80;46.60
43561;DHT22;32305;46.410;17.394;2022-07-23T03:05:44;26.80;46.60
43561;DHT22;32305;46.410;17.394;2022-07-23T03:08:12;26.80;46.60
43561;DHT22;32305;46.410;17.394;2022-07-23T03:10:39;26.80;46.60
43561;DHT22;32305;46.410;17.394;2022-07-23T03:13:06;26.80;46.60
43561;DHT22;32305;46.410;17.394;2022-07-23T03:15:33;26.80;46.60
43561;DHT22;32305;46.410;17.394;2022-07-23T03:18:01;26.80;46.60
43561;DHT22;32305;46.410;17.394;2022-07-23T03:20:28;26.80;46.60
43561;DHT22;32305;46.410;17.394;2022-07-23T03:22:55;26.80;46.60
43561;DHT22;32305;46.410;17.394;2022-07-23T03:25:22;26.80;46.60
43561;DHT22;32305;46.410;17.394;2022-07-23T03:27:49;26.80;46.60
43561;DHT22;32305;46.410;17.394;2022-07-23T03:30:17;26.80;46.60
43561;DHT22;32305;46.410;17.394;2022-07-23T03:32:44;26.80;46.60
43561;DHT22;32305;46.410;17.394;2022-07-23T03:35:11;26.80;46.60
43561;DHT22;32305;46.410;17.394;2022-07-23T03:37:38;26.80;46.60
43561;DHT22;32305;46.410;17.394;2022-07-23T03:40:06;26.80;46.60
43561;DHT22;32305;46.410;17.394;2022-07-23T03:42:34;26.80;46.60
43561;DHT22;32305;46.410;17.394;2022-07-23T03:45:01;26.80;46.60
43561;DHT22;32305;46.410;17.394;2022-07-23T03:47:28;26.80;46.60
43561;DHT22;32305;46.410;17.394;2022-07-23T03:49:55;26.80;46.60
43561;DHT22;32305;46.410;17.394;2022-07-23T03:52:22;26.80;46.50
43561;DHT22;32305;46.410;17.394;2022-07-23T03:54:50;26.80;46.50
43561;DHT22;32305;46.410;17.394;2022-07-23T03:57:17;26.80;46.50
43561;DHT22;32305;46.410;17.394;2022-07-23T03:59:44;26.80;46.50
43561;DHT22;32305;46.410;17.394;2022-07-23T04:02:11;26.90;46.60
43561;DHT22;32305;46.410;17.394;2022-07-23T04:04:38;26.80;46.50
43561;DHT22;32305;46.410;17.394;2022-07-23T04:07:05;26.90;46.50
43561;DHT22;32305;46.410;17.394;2022-07-23T04:09:34;26.90;46.50
43561;DHT22;32305;46.410;17.394;2022-07-23T04:12:01;26.90;46.50
43561;DHT22;32305;46.410;17.394;2022-07-23T04:14:28;26.90;46.50
43561;DHT22;32305;46.410;17.394;2022-07-23T04:16:55;26.90;46.50
43561;DHT22;32305;46.410;17.394;2022-07-23T04:19:22;26.90;46.40
43561;DHT22;32305;46.410;17.394;2022-07-23T04:21:49;26.90;46.30
43561;DHT22;32305;46.410;17.394;2022-07-23T04:24:17;27.00;46.40
43561;DHT22;32305;46.410;17.394;2022-07-23T04:26:45;27.00;46.30
43561;DHT22;32305;46.410;17.394;2022-07-23T04:29:12;27.00;46.30
43561;DHT22;32305;46.410;17.394;2022-07-23T04:31:39;27.00;46.20
43561;DHT22;32305;46.410;17.394;2022-07-23T04:34:06;27.00;46.20
43561;DHT22;32305;46.410;17.394;2022-07-23T04:36:33;27.00;46.10
43561;DHT22;32305;46.410;17.394;2022-07-23T04:39:00;27.00;46.10
43561;DHT22;32305;46.410;17.394;2022-07-23T04:41:28;27.10;46.10
43561;DHT22;32305;46.410;17.394;2022-07-23T04:43:55;27.10;46.00
43561;DHT22;32305;46.410;17.394;2022-07-23T04:46:23;27.10;46.00
43561;DHT22;32305;46.410;17.394;2022-07-23T04:48:50;27.10;46.00
43561;DHT22;32305;46.410;17.394;2022-07-23T04:51:17;27.20;46.00
43561;DHT22;32305;46.410;17.394;2022-07-23T04:53:44;27.20;45.90
43561;DHT22;32305;46.410;17.394;2022-07-23T04:56:11;27.20;45.90
43561;DHT22;32305;46.410;17.394;2022-07-23T04:58:39;27.20;45.80
43561;DHT22;32305;46.410;17.394;2022-07-23T05:01:06;27.30;45.80
43561;DHT22;32305;46.410;17.394;2022-07-23T05:03:33;27.30;45.80
43561;DHT22;32305;46.410;17.394;2022-07-23T05:06:00;27.30;45.70
43561;DHT22;32305;46.410;17.394;2022-07-23T05:08:27;27.30;45.80
43561;DHT22;32305;46.410;17.394;2022-07-23T05:10:55;27.20;45.90
43561;DHT22;32305;46.410;17.394;2022-07-23T05:13:22;27.20;46.30
43561;DHT22;32305;46.410;17.394;2022-07-23T05:15:49;27.10;46.60
43561;DHT22;32305;46.410;17.394;2022-07-23T05:18:16;27.00;47.10
43561;DHT22;32305;46.410;17.394;2022-07-23T05:20:44;26.80;47.50
43561;DHT22;32305;46.410;17.394;2022-07-23T05:23:11;26.50;48.00
43561;DHT22;32305;46.410;17.394;2022-07-23T05:25:38;26.20;48.50
43561;DHT22;32305;46.410;17.394;2022-07-23T05:28:06;25.90;48.80
43561;DHT22;32305;46.410;17.394;2022-07-23T05:30:33;25.60;48.80
43561;DHT22;32305;46.410;17.394;2022-07-23T05:33:00;25.20;49.00
43561;DHT22;32305;46.410;17.394;2022-07-23T05:35:27;24.90;49.10
43561;DHT22;32305;46.410;17.394;2022-07-23T05:37:55;24.60;49.30
43561;DHT22;32305;46.410;17.394;2022-07-23T05:40:22;24.30;49.40
43561;DHT22;32305;46.410;17.394;2022-07-23T05:42:49;24.00;49.20
43561;DHT22;32305;46.410;17.394;2022-07-23T05:45:16;23.70;49.40
43561;DHT22;32305;46.410;17.394;2022-07-23T05:47:46;23.40;49.40
43561;DHT22;32305;46.410;17.394;2022-07-23T05:50:13;23.20;49.70
43561;DHT22;32305;46.410;17.394;2022-07-23T05:52:41;22.90;49.80
43561;DHT22;32305;46.410;17.394;2022-07-23T05:55:10;22.70;49.90
43561;DHT22;32305;46.410;17.394;2022-07-23T05:57:37;22.50;50.30
43561;DHT22;32305;46.410;17.394;2022-07-23T06:00:07;22.30;50.30
43561;DHT22;32305;46.410;17.394;2022-07-23T06:02:34;22.10;50.70
43561;DHT22;32305;46.410;17.394;2022-07-23T06:05:01;22.00;51.10
43561;DHT22;32305;46.410;17.394;2022-07-23T06:07:29;21.90;51.80
43561;DHT22;32305;46.410;17.394;2022-07-23T06:09:56;21.80;51.40
43561;DHT22;32305;46.410;17.394;2022-07-23T06:12:23;21.70;52.30
43561;DHT22;32305;46.410;17.394;2022-07-23T06:14:51;21.60;52.50
43561;DHT22;32305;46.410;17.394;2022-07-23T06:17:19;21.50;52.80
43561;DHT22;32305;46.410;17.394;2022-07-23T06:19:46;21.50;53.20
43561;DHT22;32305;46.410;17.394;2022-07-23T06:22:13;21.50;53.70
43561;DHT22;32305;46.410;17.394;2022-07-23T06:24:40;21.50;54.00
43561;DHT22;32305;46.410;17.394;2022-07-23T06:27:07;21.50;54.10
43561;DHT22;32305;46.410;17.394;2022-07-23T06:29:34;21.60;54.40
43561;DHT22;32305;46.410;17.394;2022-07-23T06:32:01;21.50;54.90
43561;DHT22;32305;46.410;17.394;2022-07-23T06:34:29;21.60;55.20
43561;DHT22;32305;46.410;17.394;2022-07-23T06:36:56;21.60;55.30
43561;DHT22;32305;46.410;17.394;2022-07-23T06:39:24;21.60;55.10
43561;DHT22;32305;46.410;17.394;2022-07-23T06:41:52;21.70;55.30
43561;DHT22;32305;46.410;17.394;2022-07-23T06:44:26;21.70;55.30
43561;DHT22;32305;46.410;17.394;2022-07-23T06:46:53;21.80;55.30
43561;DHT22;32305;46.410;17.394;2022-07-23T06:49:20;21.80;55.10
43561;DHT22;32305;46.410;17.394;2022-07-23T06:51:47;21.80;55.00
43561;DHT22;32305;46.410;17.394;2022-07-23T06:54:15;21.80;55.00
43561;DHT22;32305;46.410;17.394;2022-07-23T06:56:42;21.80;55.00
43561;DHT22;32305;46.410;17.394;2022-07-23T06:59:10;21.90;55.10
43561;DHT22;32305;46.410;17.394;2022-07-23T07:01:37;21.90;55.00
43561;DHT22;32305;46.410;17.394;2022-07-23T07:04:05;21.90;55.10
43561;DHT22;32305;46.410;17.394;2022-07-23T07:06:32;21.90;55.00
43561;DHT22;32305;46.410;17.394;2022-07-23T07:08:59;21.90;55.20
43561;DHT22;32305;46.410;17.394;2022-07-23T07:11:26;21.80;55.40
43561;DHT22;32305;46.410;17.394;2022-07-23T07:13:54;21.90;55.30
43561;DHT22;32305;46.410;17.394;2022-07-23T07:16:21;21.90;55.70
43561;DHT22;32305;46.410;17.394;2022-07-23T07:18:48;21.90;55.90
43561;DHT22;32305;46.410;17.394;2022-07-23T07:21:15;21.90;56.00
43561;DHT22;32305;46.410;17.394;2022-07-23T07:23:42;21.90;56.30
43561;DHT22;32305;46.410;17.394;2022-07-23T07:26:09;21.90;56.50
43561;DHT22;32305;46.410;17.394;2022-07-23T07:28:36;21.90;56.60
43561;DHT22;32305;46.410;17.394;2022-07-23T07:31:03;22.00;57.00
43561;DHT22;32305;46.410;17.394;2022-07-23T07:33:31;22.00;56.40
43561;DHT22;32305;46.410;17.394;2022-07-23T07:35:58;22.00;56.70
43561;DHT22;32305;46.410;17.394;2022-07-23T07:38:25;22.00;56.50
43561;DHT22;32305;46.410;17.394;2022-07-23T07:40:52;22.00;56.50
43561;DHT22;32305;46.410;17.394;2022-07-23T07:43:19;22.00;56.50
43561;DHT22;32305;46.410;17.394;2022-07-23T07:45:47;22.00;56.50
43561;DHT22;32305;46.410;17.394;2022-07-23T07:48:14;21.90;56.60
43561;DHT22;32305;46.410;17.394;2022-07-23T07:50:41;21.90;56.70
43561;DHT22;32305;46.410;17.394;2022-07-23T07:53:09;21.90;57.00
43561;DHT22;32305;46.410;17.394;2022-07-23T07:55:37;21.90;57.10
43561;DHT22;32305;46.410;17.394;2022-07-23T07:58:05;21.90;57.10
43561;DHT22;32305;46.410;17.394;2022-07-23T08:00:32;21.90;57.10
43561;DHT22;32305;46.410;17.394;2022-07-23T08:03:00;21.90;57.20
43561;DHT22;32305;46.410;17.394;2022-07-23T08:05:30;21.90;57.30
43561;DHT22;32305;46.410;17.394;2022-07-23T08:07:58;21.80;57.40
43561;DHT22;32305;46.410;17.394;2022-07-23T08:10:27;21.80;57.60
43561;DHT22;32305;46.410;17.394;2022-07-23T08:12:55;21.80;57.30
43561;DHT22;32305;46.410;17.394;2022-07-23T08:15:28;21.80;57.40
43561;DHT22;32305;46.410;17.394;2022-07-23T08:17:57;21.80;57.20
43561;DHT22;32305;46.410;17.394;2022-07-23T08:20:25;21.90;57.20
43561;DHT22;32305;46.410;17.394;2022-07-23T08:22:57;21.90;57.20
43561;DHT22;32305;46.410;17.394;2022-07-23T08:25:39;21.90;57.10
43561;DHT22;32305;46.410;17.394;2022-07-23T08:28:08;21.90;57.00
43561;DHT22;32305;46.410;17.394;2022-07-23T08:30:36;21.90;56.90
43561;DHT22;32305;46.410;17.394;2022-07-23T08:33:06;21.90;56.80
43561;DHT22;32305;46.410;17.394;2022-07-23T08:36:00;21.90;56.90
43561;DHT22;32305;46.410;17.394;2022-07-23T08:38:30;21.90;56.80
43561;DHT22;32305;46.410;17.394;2022-07-23T08:40:57;21.80;56.80
43561;DHT22;32305;46.410;17.394;2022-07-23T08:43:26;21.80;56.80
43561;DHT22;32305;46.410;17.394;2022-07-23T08:45:56;21.80;56.90
43561;DHT22;32305;46.410;17.394;2022-07-23T08:48:32;21.70;56.90
43561;DHT22;32305;46.410;17.394;2022-07-23T08:51:02;21.70;56.80
43561;DHT22;32305;46.410;17.394;2022-07-23T08:53:31;21.70;56.90
43561;DHT22;32305;46.410;17.394;2022-07-23T08:56:01;21.70;56.90
43561;DHT22;32305;46.410;17.394;2022-07-23T08:58:30;21.70;56.80
43561;DHT22;32305;46.410;17.394;2022-07-23T09:00:58;21.70;56.80
43561;DHT22;32305;46.410;17.394;2022-07-23T09:03:34;21.70;56.80
43561;DHT22;32305;46.410;17.394;2022-07-23T09:06:02;21.70;56.80
43561;DHT22;32305;46.410;17.394;2022-07-23T09:08:38;21.70;56.70
43561;DHT22;32305;46.410;17.394;2022-07-23T09:11:08;21.70;56.70
43561;DHT22;32305;46.410;17.394;2022-07-23T09:13:41;21.70;56.90
43561;DHT22;32305;46.410;17.394;2022-07-23T09:16:15;21.70;56.60
43561;DHT22;32305;46.410;17.394;2022-07-23T09:18:52;21.80;56.80
43561;DHT22;32305;46.410;17.394;2022-07-23T09:21:31;21.70;56.90
43561;DHT22;32305;46.410;17.394;2022-07-23T09:24:01;21.80;56.70
43561;DHT22;32305;46.410;17.394;2022-07-23T09:26:35;21.80;56.80
43561;DHT22;32305;46.410;17.394;2022-07-23T09:29:12;21.70;57.00
43561;DHT22;32305;46.410;17.394;2022-07-23T09:31:50;21.70;57.10
43561;DHT22;32305;46.410;17.394;2022-07-23T09:34:30;21.70;57.40
43561;DHT22;32305;46.410;17.394;2022-07-23T09:37:14;21.70;57.60
43561;DHT22;32305;46.410;17.394;2022-07-23T09:39:43;21.70;57.50
43561;DHT22;32305;46.410;17.394;2022-07-23T09:42:26;21.80;57.50
43561;DHT22;32305;46.410;17.394;2022-07-23T09:44:56;21.80;57.30
43561;DHT22;32305;46.410;17.394;2022-07-23T09:47:26;21.90;57.10
43561;DHT22;32305;46.410;17.394;2022-07-23T09:50:02;21.80;57.00
43561;DHT22;32305;46.410;17.394;2022-07-23T09:52:35;21.90;56.80
43561;DHT22;32305;46.410;17.394;2022-07-23T09:55:04;21.90;56.70
43561;DHT22;32305;46.410;17.394;2022-07-23T09:57:33;21.90;56.50
43561;DHT22;32305;46.410;17.394;2022-07-23T10:00:06;21.90;56.30
43561;DHT22;32305;46.410;17.394;2022-07-23T10:02:35;21.90;56.10
43561;DHT22;32305;46.410;17.394;2022-07-23T10:05:03;21.90;56.10
43561;DHT22;32305;46.410;17.394;2022-07-23T10:07:36;21.90;56.00
43561;DHT22;32305;46.410;17.394;2022-07-23T10:10:05;21.90;55.70
43561;DHT22;32305;46.410;17.394;2022-07-23T10:12:33;21.90;55.70
43561;DHT22;32305;46.410;17.394;2022-07-23T10:15:20;21.90;55.70
43561;DHT22;32305;46.410;17.394;2022-07-23T10:17:48;21.80;55.70
43561;DHT22;32305;46.410;17.394;2022-07-23T10:20:15;21.80;55.70
43561;DHT22;32305;46.410;17.394;2022-07-23T10:22:57;21.80;55.90
43561;DHT22;32305;46.410;17.394;2022-07-23T10:25:41;21.70;55.80
43561;DHT22;32305;46.410;17.394;2022-07-23T10:28:52;21.70;55.90
43561;DHT22;32305;46.410;17.394;2022-07-23T10:31:39;21.70;56.20
43561;DHT22;32305;46.410;17.394;2022-07-23T10:37:23;21.70;56.80
43561;DHT22;32305;46.410;17.394;2022-07-23T10:40:14;21.70;56.80
43561;DHT22;32305;46.410;17.394;2022-07-23T10:42:45;21.70;57.00
43561;DHT22;32305;46.410;17.394;2022-07-23T10:45:34;21.80;56.90
43561;DHT22;32305;46.410;17.394;2022-07-23T10:48:16;21.90;57.00
43561;DHT22;32305;46.410;17.394;2022-07-23T10:53:57;22.00;57.00
43561;DHT22;32305;46.410;17.394;2022-07-23T11:00:15;22.00;56.50
43561;DHT22;32305;46.410;17.394;2022-07-23T11:02:44;22.00;56.30
43561;DHT22;32305;46.410;17.394;2022-07-23T11:05:13;22.00;56.50
43561;DHT22;32305;46.410;17.394;2022-07-23T11:10:53;22.00;56.40
43561;DHT22;32305;46.410;17.394;2022-07-23T11:13:28;22.00;56.50
43561;DHT22;32305;46.410;17.394;2022-07-23T11:16:08;22.00;56.30
43561;DHT22;32305;46.410;17.394;2022-07-23T11:18:58;22.10;56.30
43561;DHT22;32305;46.410;17.394;2022-07-23T11:21:46;22.00;56.40
43561;DHT22;32305;46.410;17.394;2022-07-23T11:24:16;22.00;56.20
43561;DHT22;32305;46.410;17.394;2022-07-23T11:26:50;22.00;56.40
43561;DHT22;32305;46.410;17.394;2022-07-23T11:29:38;22.00;56.20
43561;DHT22;32305;46.410;17.394;2022-07-23T11:32:24;22.00;56.10
43561;DHT22;32305;46.410;17.394;2022-07-23T11:34:52;22.00;56.10
43561;DHT22;32305;46.410;17.394;2022-07-23T11:37:31;22.00;56.10
43561;DHT22;32305;46.410;17.394;2022-07-23T11:39:59;22.10;56.10
43561;DHT22;32305;46.410;17.394;2022-07-23T11:42:26;22.10;56.20
43561;DHT22;32305;46.410;17.394;2022-07-23T11:44:57;22.10;56.00
43561;DHT22;32305;46.410;17.394;2022-07-23T11:47:26;22.10;56.20
43561;DHT22;32305;46.410;17.394;2022-07-23T11:49:55;22.10;56.30
43561;DHT22;32305;46.410;17.394;2022-07-23T11:52:23;22.10;56.30
43561;DHT22;32305;46.410;17.394;2022-07-23T11:54:54;22.10;56.30
43561;DHT22;32305;46.410;17.394;2022-07-23T11:57:26;22.20;56.30
43561;DHT22;32305;46.410;17.394;2022-07-23T11:59:57;22.20;56.40
43561;DHT22;32305;46.410;17.394;2022-07-23T12:02:25;22.20;56.20
43561;DHT22;32305;46.410;17.394;2022-07-23T12:04:53;22.20;56.40
43561;DHT22;32305;46.410;17.394;2022-07-23T12:07:39;22.30;56.30
43561;DHT22;32305;46.410;17.394;2022-07-23T12:10:20;22.30;56.30
43561;DHT22;32305;46.410;17.394;2022-07-23T12:12:50;22.30;56.30
43561;DHT22;32305;46.410;17.394;2022-07-23T12:15:30;22.30;56.30
43561;DHT22;32305;46.410;17.394;2022-07-23T12:18:02;22.30;56.30
43561;DHT22;32305;46.410;17.394;2022-07-23T12:20:35;22.30;56.30
43561;DHT22;32305;46.410;17.394;2022-07-23T12:23:05;22.40;56.30
43561;DHT22;32305;46.410;17.394;2022-07-23T12:25:35;22.40;56.20
43561;DHT22;32305;46.410;17.394;2022-07-23T12:28:08;22.40;56.10
43561;DHT22;32305;46.410;17.394;2022-07-23T12:30:47;22.40;56.20
43561;DHT22;32305;46.410;17.394;2022-07-23T12:33:28;22.40;56.10
43561;DHT22;32305;46.410;17.394;2022-07-23T12:35:58;22.40;55.90
43561;DHT22;32305;46.410;17.394;2022-07-23T12:38:28;22.40;55.90
43561;DHT22;32305;46.410;17.394;2022-07-23T12:41:02;22.40;55.80
43561;DHT22;32305;46.410;17.394;2022-07-23T12:43:33;22.40;55.90
43561;DHT22;32305;46.410;17.394;2022-07-23T12:46:07;22.40;56.10
43561;DHT22;32305;46.410;17.394;2022-07-23T12:48:49;22.40;56.10
43561;DHT22;32305;46.410;17.394;2022-07-23T12:51:27;22.30;56.30
43561;DHT22;32305;46.410;17.394;2022-07-23T12:54:07;22.30;56.20
43561;DHT22;32305;46.410;17.394;2022-07-23T12:56:40;22.30;56.20
43561;DHT22;32305;46.410;17.394;2022-07-23T12:59:15;22.30;56.10
43561;DHT22;32305;46.410;17.394;2022-07-23T13:01:53;22.30;56.00
43561;DHT22;32305;46.410;17.394;2022-07-23T13:04:22;22.30;55.80
43561;DHT22;32305;46.410;17.394;2022-07-23T13:06:52;22.30;55.70
43561;DHT22;32305;46.410;17.394;2022-07-23T13:09:21;22.20;55.50
43561;DHT22;32305;46.410;17.394;2022-07-23T13:11:53;22.20;55.50
43561;DHT22;32305;46.410;17.394;2022-07-23T13:14:24;22.20;55.30
43561;DHT22;32305;46.410;17.394;2022-07-23T13:16:53;22.20;55.30
43561;DHT22;32305;46.410;17.394;2022-07-23T13:19:23;22.20;55.40
43561;DHT22;32305;46.410;17.394;2022-07-23T13:21:52;22.10;55.20
43561;DHT22;32305;46.410;17.394;2022-07-23T13:24:20;22.10;55.10
43561;DHT22;32305;46.410;17.394;2022-07-23T13:26:47;22.10;55.00
43561;DHT22;32305;46.410;17.394;2022-07-23T13:29:16;22.10;55.00
43561;DHT22;32305;46.410;17.394;2022-07-23T13:31:46;22.10;55.10
43561;DHT22;32305;46.410;17.394;2022-07-23T13:34:14;22.10;55.00
43561;DHT22;32305;46.410;17.394;2022-07-23T13:36:42;22.00;55.00
43561;DHT22;32305;46.410;17.394;2022-07-23T13:39:10;22.00;55.10
43561;DHT22;32305;46.410;17.394;2022-07-23T13:41:38;22.00;55.30
43561;DHT22;32305;46.410;17.394;2022-07-23T13:44:15;22.00;55.10
43561;DHT22;32305;46.410;17.394;2022-07-23T13:46:42;22.00;55.10
43561;DHT22;32305;46.410;17.394;2022-07-23T13:49:09;22.00;55.00
43561;DHT22;32305;46.410;17.394;2022-07-23T13:51:37;22.00;55.10
43561;DHT22;32305;46.410;17.394;2022-07-23T13:54:04;22.00;55.00
43561;DHT22;32305;46.410;17.394;2022-07-23T13:56:35;22.00;54.90
43561;DHT22;32305;46.410;17.394;2022-07-23T13:59:03;22.00;54.90
43561;DHT22;32305;46.410;17.394;2022-07-23T14:01:33;22.00;55.00
43561;DHT22;32305;46.410;17.394;2022-07-23T14:04:16;22.00;54.90
43561;DHT22;32305;46.410;17.394;2022-07-23T14:06:44;22.00;54.80
43561;DHT22;32305;46.410;17.394;2022-07-23T14:09:18;21.90;54.80
43561;DHT22;32305;46.410;17.394;2022-07-23T14:11:45;21.90;54.80
43561;DHT22;32305;46.410;17.394;2022-07-23T14:14:13;21.90;54.60
43561;DHT22;32305;46.410;17.394;2022-07-23T14:16:41;21.90;54.70
43561;DHT22;32305;46.410;17.394;2022-07-23T14:19:08;21.90;54.60
43561;DHT22;32305;46.410;17.394;2022-07-23T14:21:35;21.80;54.70
43561;DHT22;32305;46.410;17.394;2022-07-23T14:24:03;21.80;54.50
43561;DHT22;32305;46.410;17.394;2022-07-23T14:26:32;21.80;54.50
43561;DHT22;32305;46.410;17.394;2022-07-23T14:28:59;21.80;54.70
43561;DHT22;32305;46.410;17.394;2022-07-23T14:31:27;21.80;54.60
43561;DHT22;32305;46.410;17.394;2022-07-23T14:33:55;21.80;54.50
43561;DHT22;32305;46.410;17.394;2022-07-23T14:36:22;21.70;54.50
43561;DHT22;32305;46.410;17.394;2022-07-23T14:38:49;21.70;54.60
43561;DHT22;32305;46.410;17.394;2022-07-23T14:41:17;21.70;54.50
43561;DHT22;32305;46.410;17.394;2022-07-23T14:43:48;21.70;54.50
43561;DHT22;32305;46.410;17.394;2022-07-23T14:46:15;21.70;54.70
43561;DHT22;32305;46.410;17.394;2022-07-23T14:48:44;21.70;54.60
43561;DHT22;32305;46.410;17.394;2022-07-23T14:51:11;21.80;54.50
43561;DHT22;32305;46.410;17.394;2022-07-23T14:53:38;21.70;56.70
43561;DHT22;32305;46.410;17.394;2022-07-23T14:56:06;21.80;57.80
43561;DHT22;32305;46.410;17.394;2022-07-23T14:58:33;22.00;59.60
43561;DHT22;32305;46.410;17.394;2022-07-23T15:01:03;22.20;60.00
43561;DHT22;32305;46.410;17.394;2022-07-23T15:03:30;22.40;60.80
43561;DHT22;32305;46.410;17.394;2022-07-23T15:06:09;22.60;61.20
43561;DHT22;32305;46.410;17.394;2022-07-23T15:08:38;22.90;61.80
43561;DHT22;32305;46.410;17.394;2022-07-23T15:11:06;23.20;62.10
43561;DHT22;32305;46.410;17.394;2022-07-23T15:13:37;23.40;62.00
43561;DHT22;32305;46.410;17.394;2022-07-23T15:16:05;23.60;62.10
43561;DHT22;32305;46.410;17.394;2022-07-23T15:18:36;23.90;62.40
43561;DHT22;32305;46.410;17.394;2022-07-23T15:21:04;24.20;62.20
43561;DHT22;32305;46.410;17.394;2022-07-23T15:23:31;24.40;62.20
43561;DHT22;32305;46.410;17.394;2022-07-23T15:25:58;24.60;62.10
43561;DHT22;32305;46.410;17.394;2022-07-23T15:28:26;24.80;61.60
43561;DHT22;32305;46.410;17.394;2022-07-23T15:30:53;25.00;61.40
43561;DHT22;32305;46.410;17.394;2022-07-23T15:33:21;25.20;61.00
43561;DHT22;32305;46.410;17.394;2022-07-23T15:35:51;25.40;60.60
43561;DHT22;32305;46.410;17.394;2022-07-23T15:38:19;25.70;59.90
43561;DHT22;32305;46.410;17.394;2022-07-23T15:40:55;25.90;59.40
43561;DHT22;32305;46.410;17.394;2022-07-23T15:43:25;26.00;58.80